createdAt,value
2018-01-12T00:01:12.452Z,17.73
2018-01-12T00:03:40.212Z,22.60
2018-01-12T00:06:07.842Z,19.20
2018-01-12T00:08:35.576Z,19.10
2018-01-12T00:11:03.208Z,19.87
2018-01-12T00:13:30.950Z,18.20
2018-01-12T00:15:58.682Z,18.27
2018-01-12T00:18:26.361Z,17.97
2018-01-12T00:20:54.066Z,23.77
2018-01-12T00:23:21.805Z,18.10
2018-01-12T00:25:49.436Z,20.10
2018-01-12T00:28:17.175Z,17.53
2018-01-12T00:30:44.871Z,19.33
2018-01-12T00:33:12.654Z,21.70
2018-01-12T00:35:40.420Z,18.77
2018-01-12T00:38:08.267Z,17.17
2018-01-12T00:40:36.104Z,15.53
2018-01-12T00:43:03.927Z,15.67
2018-01-12T00:45:31.604Z,19.27
2018-01-12T00:47:59.399Z,20.00
2018-01-12T00:50:27.238Z,18.20
2018-01-12T00:52:54.936Z,17.60
2018-01-12T00:55:22.720Z,20.50
2018-01-12T00:57:50.532Z,20.00
2018-01-12T01:00:18.244Z,20.47
2018-01-12T01:02:46.076Z,22.37
2018-01-12T01:05:13.839Z,22.57
2018-01-12T01:07:41.595Z,22.40
2018-01-12T01:10:10.393Z,23.60
2018-01-12T01:12:38.196Z,24.07
2018-01-12T01:15:06.019Z,22.93
2018-01-12T01:17:33.800Z,23.57
2018-01-12T01:20:01.623Z,24.70
2018-01-12T01:22:29.443Z,23.07
2018-01-12T01:24:57.297Z,25.67
2018-01-12T01:27:24.918Z,26.30
2018-01-12T01:29:52.730Z,24.37
2018-01-12T01:32:20.468Z,28.77
2018-01-12T01:34:48.293Z,27.70
2018-01-12T01:37:16.037Z,27.47
2018-01-12T01:39:43.895Z,26.60
2018-01-12T01:42:11.614Z,27.73
2018-01-12T01:44:39.485Z,28.00
2018-01-12T01:47:07.177Z,29.00
2018-01-12T01:49:35.018Z,28.07
2018-01-12T01:52:02.744Z,29.87
2018-01-12T01:54:30.571Z,30.80
2018-01-12T01:56:58.206Z,29.90
2018-01-12T01:59:26.085Z,31.93
2018-01-12T02:01:53.893Z,32.10
2018-01-12T02:04:21.716Z,28.97
2018-01-12T02:06:49.466Z,28.87
2018-01-12T02:09:17.157Z,29.30
2018-01-12T02:11:44.935Z,29.87
2018-01-12T02:14:12.763Z,30.77
2018-01-12T02:16:40.538Z,32.40
2018-01-12T02:19:08.329Z,33.57
2018-01-12T02:21:35.968Z,31.70
2018-01-12T02:24:03.806Z,32.07
2018-01-12T02:26:31.543Z,31.60
2018-01-12T02:29:00.179Z,33.63
2018-01-12T02:31:27.946Z,31.63
2018-01-12T02:33:55.751Z,32.50
2018-01-12T02:36:23.484Z,31.33
2018-01-12T02:38:51.340Z,34.30
2018-01-12T02:41:19.070Z,33.90
2018-01-12T02:43:46.899Z,33.87
2018-01-12T02:46:14.557Z,33.70
2018-01-12T02:48:42.204Z,33.00
2018-01-12T02:51:10.059Z,30.33
2018-01-12T02:53:37.688Z,34.30
2018-01-12T02:56:05.517Z,32.23
2018-01-12T02:58:33.246Z,37.10
2018-01-12T03:01:01.076Z,34.97
2018-01-12T03:03:28.827Z,35.27
2018-01-12T03:05:56.649Z,37.63
2018-01-12T03:08:24.393Z,34.07
2018-01-12T03:10:52.095Z,35.03
2018-01-12T03:13:19.732Z,28.67
2018-01-12T03:15:47.584Z,37.73
2018-01-12T03:18:15.222Z,33.27
2018-01-12T03:20:43.058Z,35.57
2018-01-12T03:23:10.793Z,35.87
2018-01-12T03:25:38.468Z,36.77
2018-01-12T03:28:06.251Z,30.17
2018-01-12T03:30:34.088Z,33.67
2018-01-12T03:33:01.731Z,33.40
2018-01-12T03:35:29.559Z,33.10
2018-01-12T03:37:57.283Z,31.90
2018-01-12T03:40:24.961Z,30.83
2018-01-12T03:42:52.758Z,29.20
2018-01-12T03:45:20.608Z,30.10
2018-01-12T03:47:48.340Z,31.00
2018-01-12T03:50:16.050Z,31.00
2018-01-12T03:52:43.689Z,28.83
2018-01-12T03:55:11.542Z,31.37
2018-01-12T03:57:39.172Z,30.17
2018-01-12T04:00:07.004Z,29.77
2018-01-12T04:02:34.656Z,31.17
2018-01-12T04:05:02.474Z,30.70
2018-01-12T04:07:30.099Z,32.87
2018-01-12T04:09:57.934Z,31.20
2018-01-12T04:12:25.677Z,34.13
2018-01-12T04:14:53.364Z,34.33
2018-01-12T04:17:21.189Z,31.90
2018-01-12T04:19:48.967Z,33.90
2018-01-12T04:22:16.600Z,32.47
2018-01-12T04:24:44.459Z,32.70
2018-01-12T04:27:12.091Z,32.30
2018-01-12T04:29:39.921Z,34.13
2018-01-12T04:32:07.606Z,31.00
2018-01-12T04:34:35.302Z,31.50
2018-01-12T04:37:03.148Z,34.00
2018-01-12T04:39:30.896Z,33.60
2018-01-12T04:41:58.722Z,34.87
2018-01-12T04:44:26.459Z,33.87
2018-01-12T04:46:54.159Z,33.00
2018-01-12T04:49:21.928Z,31.97
2018-01-12T04:51:49.759Z,36.33
2018-01-12T04:54:17.506Z,34.30
2018-01-12T04:56:45.338Z,39.47
2018-01-12T04:59:13.080Z,33.80
2018-01-12T05:01:40.909Z,39.87
2018-01-12T05:04:08.544Z,36.70
2018-01-12T05:06:36.243Z,33.23
2018-01-12T05:09:04.077Z,34.33
2018-01-12T05:11:31.940Z,35.27
2018-01-12T05:13:59.586Z,33.63
2018-01-12T05:16:27.384Z,31.07
2018-01-12T05:18:55.169Z,34.23
2018-01-12T05:21:22.863Z,37.57
2018-01-12T05:23:50.610Z,36.17
2018-01-12T05:26:18.441Z,34.13
2018-01-12T05:28:46.187Z,38.67
2018-01-12T05:31:14.013Z,37.00
2018-01-12T05:33:41.677Z,35.80
2018-01-12T05:36:09.487Z,39.23
2018-01-12T05:38:37.159Z,34.57
2018-01-12T05:41:04.841Z,33.40
2018-01-12T05:43:32.604Z,36.20
2018-01-12T05:46:00.299Z,30.17
2018-01-12T05:48:28.078Z,36.57
2018-01-12T05:50:55.885Z,34.57
2018-01-12T05:53:23.642Z,32.23
2018-01-12T05:55:51.328Z,35.33
2018-01-12T05:58:19.106Z,32.00
2018-01-12T06:03:57.613Z,34.50
2018-01-12T06:06:25.451Z,35.20
2018-01-12T06:08:53.181Z,37.07
2018-01-12T06:11:21.032Z,35.27
2018-01-12T06:13:48.771Z,33.80
2018-01-12T06:16:16.622Z,34.20
2018-01-12T06:18:44.416Z,36.00
2018-01-12T06:21:12.275Z,35.67
2018-01-12T06:23:39.999Z,32.27
2018-01-12T06:26:07.832Z,32.83
2018-01-12T06:28:35.566Z,30.33
2018-01-12T06:31:03.388Z,36.03
2018-01-12T06:33:31.131Z,34.63
2018-01-12T06:35:58.956Z,32.10
2018-01-12T06:38:26.597Z,35.53
2018-01-12T06:40:54.401Z,33.10
2018-01-12T06:43:22.075Z,29.00
2018-01-12T06:45:49.866Z,30.50
2018-01-12T06:48:17.568Z,29.70
2018-01-12T06:50:45.192Z,31.47
2018-01-12T06:53:12.961Z,28.50
2018-01-12T06:55:40.693Z,30.40
2018-01-12T06:58:08.517Z,27.80
2018-01-12T07:00:36.217Z,28.83
2018-01-12T07:03:03.987Z,28.30
2018-01-12T07:05:31.616Z,29.20
2018-01-12T07:07:59.303Z,29.63
2018-01-12T07:10:27.085Z,28.87
2018-01-12T07:12:54.776Z,32.20
2018-01-12T07:15:22.576Z,28.40
2018-01-12T07:17:50.460Z,28.77
2018-01-12T07:20:29.873Z,25.97
2018-01-12T07:23:09.426Z,27.77
2018-01-12T07:25:37.068Z,30.10
2018-01-12T07:28:04.879Z,28.27
2018-01-12T07:30:32.505Z,30.43
2018-01-12T07:33:00.305Z,33.17
2018-01-12T07:35:28.051Z,30.00
2018-01-12T07:37:55.743Z,29.20
2018-01-12T07:40:23.536Z,25.70
2018-01-12T07:42:51.340Z,27.37
2018-01-12T07:45:19.087Z,29.17
2018-01-12T07:47:46.924Z,25.67
2018-01-12T07:50:14.684Z,30.10
2018-01-12T07:52:47.982Z,30.90
2018-01-12T07:55:15.770Z,24.37
2018-01-12T07:57:43.603Z,29.47
2018-01-12T08:00:11.438Z,27.27
2018-01-12T08:02:44.855Z,27.90
2018-01-12T08:05:12.656Z,27.87
2018-01-12T08:07:40.365Z,25.70
2018-01-12T08:10:09.125Z,26.77
2018-01-12T08:12:37.010Z,29.30
2018-01-12T08:15:04.656Z,28.10
2018-01-12T08:17:32.359Z,25.67
2018-01-12T08:20:00.019Z,26.30
2018-01-12T08:22:27.708Z,26.07
2018-01-12T08:24:55.516Z,26.70
2018-01-12T08:27:23.346Z,26.53
2018-01-12T08:29:50.983Z,24.20
2018-01-12T08:32:18.670Z,25.43
2018-01-12T08:34:46.296Z,27.00
2018-01-12T08:37:14.494Z,24.97
2018-01-12T08:39:42.129Z,27.33
2018-01-12T08:42:09.953Z,25.40
2018-01-12T08:44:37.824Z,24.30
2018-01-12T08:47:05.578Z,24.47
2018-01-12T08:49:33.285Z,26.27
2018-01-12T08:52:00.933Z,26.07
2018-01-12T08:54:28.609Z,23.53
2018-01-12T08:56:56.263Z,21.70
2018-01-12T08:59:23.968Z,25.10
2018-01-12T09:01:51.593Z,24.23
2018-01-12T09:04:19.284Z,25.93
2018-01-12T09:06:46.913Z,20.63
2018-01-12T09:09:14.610Z,23.30
2018-01-12T09:11:42.251Z,22.20
2018-01-12T09:17:12.925Z,21.93
2018-01-12T09:19:48.622Z,19.90
2018-01-12T09:22:28.243Z,24.10
2018-01-12T09:24:55.927Z,23.70
2018-01-12T09:27:23.743Z,22.57
2018-01-12T09:29:51.566Z,22.70
2018-01-12T09:32:19.352Z,22.10
2018-01-12T09:35:05.984Z,21.10
2018-01-12T09:37:40.542Z,21.07
2018-01-12T09:40:22.092Z,18.40
2018-01-12T09:42:49.764Z,20.83
2018-01-12T09:45:17.471Z,21.20
2018-01-12T09:50:50.378Z,20.57
2018-01-12T09:53:18.129Z,21.43
2018-01-12T09:55:45.820Z,22.30
2018-01-12T09:58:13.561Z,23.40
2018-01-12T10:01:00.275Z,20.40
2018-01-12T10:03:27.969Z,19.83
2018-01-12T10:05:55.684Z,18.40
2018-01-12T10:08:26.143Z,20.77
2018-01-12T10:10:53.787Z,18.83
2018-01-12T10:13:21.538Z,20.00
2018-01-12T10:15:49.173Z,20.20
2018-01-12T10:18:28.850Z,20.00
2018-01-12T10:20:56.619Z,21.57
2018-01-12T10:23:24.374Z,20.10
2018-01-12T10:25:52.069Z,19.80
2018-01-12T10:28:19.842Z,19.70
2018-01-12T10:30:58.523Z,21.03
2018-01-12T10:33:58.916Z,20.53
2018-01-12T10:36:36.667Z,19.87
2018-01-12T10:39:04.460Z,18.70
2018-01-12T10:44:35.486Z,19.23
2018-01-12T10:47:16.683Z,18.60
2018-01-12T10:50:11.205Z,18.47
2018-01-12T10:52:54.684Z,19.40
2018-01-12T10:55:22.499Z,19.67
2018-01-12T10:57:50.238Z,19.50
2018-01-12T11:00:25.757Z,20.60
2018-01-12T11:02:53.473Z,20.23
2018-01-12T11:05:21.251Z,22.23
2018-01-12T11:07:49.068Z,20.63
2018-01-12T11:10:16.832Z,20.43
2018-01-12T11:12:44.541Z,18.17
2018-01-12T11:15:12.315Z,20.80
2018-01-12T11:17:40.102Z,19.63
2018-01-12T11:20:07.858Z,19.30
2018-01-12T11:22:35.571Z,20.00
2018-01-12T11:25:03.340Z,19.10
2018-01-12T11:27:31.043Z,18.10
2018-01-12T11:29:58.820Z,19.80
2018-01-12T11:32:26.632Z,17.83
2018-01-12T11:34:54.327Z,17.27
2018-01-12T11:37:22.043Z,19.07
2018-01-12T11:39:49.787Z,17.50
2018-01-12T11:42:17.480Z,18.30
2018-01-12T11:44:45.192Z,17.33
2018-01-12T11:47:12.891Z,17.00
2018-01-12T11:49:40.653Z,17.53
2018-01-12T11:52:08.373Z,17.53
2018-01-12T11:54:36.117Z,16.00
2018-01-12T11:57:03.830Z,17.60
2018-01-12T11:59:31.593Z,13.83
2018-01-12T12:01:59.354Z,18.70
2018-01-12T12:04:27.106Z,16.70
2018-01-12T12:06:54.739Z,16.13
2018-01-12T12:09:22.421Z,13.87
2018-01-12T12:11:50.129Z,14.50
2018-01-12T12:14:17.908Z,16.60
2018-01-12T12:16:45.680Z,14.50
2018-01-12T12:19:13.574Z,14.60
2018-01-12T12:21:41.243Z,16.20
2018-01-12T12:24:08.930Z,16.30
2018-01-12T12:26:36.715Z,16.10
2018-01-12T12:29:04.427Z,16.03
2018-01-12T12:31:32.190Z,15.97
2018-01-12T12:33:59.908Z,17.80
2018-01-12T12:36:27.599Z,15.83
2018-01-12T12:38:55.238Z,13.27
2018-01-12T12:41:24.966Z,15.60
2018-01-12T12:43:53.542Z,15.07
2018-01-12T12:46:21.238Z,15.77
2018-01-12T12:48:48.869Z,15.00
2018-01-12T12:51:16.560Z,15.47
2018-01-12T12:53:44.198Z,14.17
2018-01-12T12:56:11.900Z,16.17
2018-01-12T12:58:39.528Z,16.77
2018-01-12T13:01:07.224Z,16.13
2018-01-12T13:03:34.861Z,16.33
2018-01-12T13:06:02.547Z,14.77
2018-01-12T13:08:30.177Z,11.93
2018-01-12T13:10:57.850Z,14.00
2018-01-12T13:13:25.485Z,15.20
2018-01-12T13:15:53.203Z,16.03
2018-01-12T13:18:20.961Z,8.90
2018-01-12T13:20:48.707Z,12.23
2018-01-12T13:23:16.416Z,12.00
2018-01-12T13:25:44.157Z,13.30
2018-01-12T13:28:11.868Z,13.90
2018-01-12T13:30:39.540Z,15.97
2018-01-12T13:33:07.159Z,14.30
2018-01-12T13:35:34.918Z,14.20
2018-01-12T13:38:02.564Z,14.90
2018-01-12T13:40:30.310Z,12.30
2018-01-12T13:42:58.007Z,14.47
2018-01-12T13:45:25.749Z,14.77
2018-01-12T13:47:53.439Z,14.40
2018-01-12T13:50:21.322Z,13.40
2018-01-12T13:52:49.024Z,14.87
2018-01-12T13:55:16.715Z,13.20
2018-01-12T13:57:44.364Z,10.17
2018-01-12T14:00:12.049Z,13.60
2018-01-12T14:02:39.704Z,12.50
2018-01-12T14:05:07.340Z,13.63
2018-01-12T14:07:35.050Z,14.80
2018-01-12T14:10:02.685Z,14.57
2018-01-12T14:12:30.367Z,12.13
2018-01-12T14:14:57.996Z,13.83
2018-01-12T14:17:25.685Z,12.33
2018-01-12T14:19:53.327Z,13.00
2018-01-12T14:22:21.035Z,11.40
2018-01-12T14:24:48.672Z,14.50
2018-01-12T14:27:16.355Z,13.37
2018-01-12T14:29:44.046Z,11.33
2018-01-12T14:32:11.803Z,13.40
2018-01-12T14:34:39.522Z,13.20
2018-01-12T14:37:07.261Z,12.47
2018-01-12T14:39:34.973Z,13.17
2018-01-12T14:42:02.686Z,13.67
2018-01-12T14:44:31.395Z,12.20
2018-01-12T14:46:59.154Z,13.57
2018-01-12T14:49:26.886Z,13.30
2018-01-12T14:51:54.579Z,13.40
2018-01-12T14:54:22.287Z,12.23
2018-01-12T14:56:49.990Z,12.20
2018-01-12T14:59:17.642Z,13.73
2018-01-12T15:01:45.329Z,13.10
2018-01-12T15:04:13.056Z,12.70
2018-01-12T15:06:40.834Z,12.27
2018-01-12T15:09:08.554Z,13.10
2018-01-12T15:11:36.318Z,12.17
2018-01-12T15:14:04.005Z,12.93
2018-01-12T15:16:31.804Z,13.07
2018-01-12T15:18:59.558Z,13.20
2018-01-12T15:21:27.248Z,13.90
2018-01-12T15:23:55.200Z,13.00
2018-01-12T15:26:22.902Z,11.57
2018-01-12T15:28:50.582Z,13.47
2018-01-12T15:31:18.263Z,13.03
2018-01-12T15:33:45.972Z,13.03
2018-01-12T15:36:13.654Z,12.33
2018-01-12T15:38:41.431Z,13.90
2018-01-12T15:41:09.166Z,12.10
2018-01-12T15:43:36.865Z,11.77
2018-01-12T15:46:04.504Z,11.30
2018-01-12T15:48:32.204Z,12.97
2018-01-12T15:50:59.849Z,13.23
2018-01-12T15:53:27.594Z,12.60
2018-01-12T15:55:55.273Z,12.70
2018-01-12T15:58:22.972Z,13.53
2018-01-12T16:00:50.631Z,15.23
2018-01-12T16:03:18.332Z,13.60
2018-01-12T16:05:46.012Z,14.13
2018-01-12T16:08:13.719Z,14.40
2018-01-12T16:10:41.390Z,14.87
2018-01-12T16:13:09.109Z,14.63
2018-01-12T16:15:36.742Z,13.60
2018-01-12T16:18:04.564Z,13.90
2018-01-12T16:20:32.240Z,14.83
2018-01-12T16:22:59.928Z,14.53
2018-01-12T16:25:27.560Z,14.50
2018-01-12T16:27:55.239Z,14.23
2018-01-12T16:30:22.882Z,15.30
2018-01-12T16:32:50.585Z,16.00
2018-01-12T16:35:18.248Z,16.10
2018-01-12T16:37:45.919Z,15.97
2018-01-12T16:40:13.564Z,13.27
2018-01-12T16:42:41.240Z,14.63
2018-01-12T16:45:09.709Z,15.00
2018-01-12T16:47:37.467Z,14.30
2018-01-12T16:50:05.194Z,15.10
2018-01-12T16:52:32.945Z,14.93
2018-01-12T16:55:00.589Z,14.13
2018-01-12T16:57:28.490Z,12.27
2018-01-12T16:59:56.226Z,15.47
2018-01-12T17:02:23.963Z,14.57
2018-01-12T17:04:51.673Z,15.67
2018-01-12T17:07:19.370Z,15.37
2018-01-12T17:09:47.015Z,16.20
2018-01-12T17:12:14.761Z,15.10
2018-01-12T17:14:42.481Z,15.70
2018-01-12T17:17:10.270Z,15.27
2018-01-12T17:19:37.980Z,16.20
2018-01-12T17:22:05.725Z,17.10
2018-01-12T17:24:33.366Z,16.33
2018-01-12T17:27:01.008Z,15.30
2018-01-12T17:29:28.746Z,15.60
2018-01-12T17:31:56.411Z,16.30
2018-01-12T17:34:24.150Z,16.27
2018-01-12T17:36:51.780Z,15.03
2018-01-12T17:39:19.452Z,15.50
2018-01-12T17:41:47.134Z,16.53
2018-01-12T17:44:14.872Z,14.27
2018-01-12T17:46:42.501Z,15.47
2018-01-12T17:49:10.206Z,15.30
2018-01-12T17:51:37.908Z,16.30
2018-01-12T17:54:05.665Z,15.53
2018-01-12T17:56:33.372Z,16.50
2018-01-12T17:59:01.118Z,14.67
2018-01-12T18:01:28.809Z,15.10
2018-01-12T18:03:56.557Z,16.07
2018-01-12T18:06:24.223Z,16.13
2018-01-12T18:08:51.911Z,17.33
2018-01-12T18:11:19.534Z,15.27
2018-01-12T18:13:47.204Z,17.10
2018-01-12T18:16:14.836Z,16.87
2018-01-12T18:18:42.527Z,15.27
2018-01-12T18:21:10.161Z,16.40
2018-01-12T18:23:37.917Z,17.23
2018-01-12T18:26:05.626Z,16.20
2018-01-12T18:28:33.384Z,16.37
2018-01-12T18:31:01.102Z,16.50
2018-01-12T18:33:28.837Z,15.90
2018-01-12T18:35:56.541Z,16.97
2018-01-12T18:38:24.295Z,18.00
2018-01-12T18:40:51.984Z,17.57
2018-01-12T18:43:19.728Z,17.23
2018-01-12T18:45:48.394Z,15.60
2018-01-12T18:48:16.164Z,17.30
2018-01-12T18:50:43.802Z,17.50
2018-01-12T18:53:11.548Z,16.10
2018-01-12T18:55:39.244Z,18.07
2018-01-12T18:58:06.988Z,17.63
2018-01-12T19:00:34.683Z,15.40
2018-01-12T19:03:02.544Z,17.13
2018-01-12T19:05:30.201Z,15.03
2018-01-12T19:07:57.897Z,17.33
2018-01-12T19:10:25.662Z,15.23
2018-01-12T19:12:53.565Z,17.60
2018-01-12T19:15:21.335Z,16.17
2018-01-12T19:17:49.076Z,16.60
2018-01-12T19:20:16.889Z,16.50
2018-01-12T19:22:44.635Z,16.00
2018-01-12T19:25:12.375Z,15.80
2018-01-12T19:27:40.092Z,15.17
2018-01-12T19:30:07.832Z,16.83
2018-01-12T19:32:35.539Z,17.03
2018-01-12T19:35:03.332Z,17.10
2018-01-12T19:37:31.075Z,17.03
2018-01-12T19:39:58.830Z,15.33
2018-01-12T19:42:26.520Z,15.67
2018-01-12T19:44:54.343Z,14.90
2018-01-12T19:47:22.053Z,17.80
2018-01-12T19:49:49.803Z,15.80
2018-01-12T19:52:17.432Z,16.47
2018-01-12T19:54:45.189Z,14.83
2018-01-12T19:57:12.907Z,17.77
2018-01-12T19:59:40.669Z,16.10
2018-01-12T20:02:08.370Z,15.90
2018-01-12T20:04:36.110Z,16.30
2018-01-12T20:07:03.752Z,15.17
2018-01-12T20:09:31.517Z,17.00
2018-01-12T20:11:59.223Z,15.33
2018-01-12T20:14:27.001Z,14.37
2018-01-12T20:16:54.749Z,15.67
2018-01-12T20:19:22.553Z,15.07
2018-01-12T20:21:50.255Z,15.77
2018-01-12T20:24:18.019Z,14.40
2018-01-12T20:26:45.765Z,15.33
2018-01-12T20:29:13.443Z,15.60
2018-01-12T20:31:41.141Z,15.20
2018-01-12T20:34:08.970Z,14.50
2018-01-12T20:36:36.689Z,15.23
2018-01-12T20:39:04.474Z,13.10
2018-01-12T20:41:32.103Z,16.23
2018-01-12T20:44:00.098Z,13.90
2018-01-12T20:46:27.834Z,15.10
2018-01-12T20:48:55.520Z,16.07
2018-01-12T20:51:23.270Z,14.90
2018-01-12T20:53:50.996Z,13.93
2018-01-12T20:56:18.803Z,13.00
2018-01-12T20:58:46.502Z,14.20
2018-01-12T21:01:14.184Z,15.20
2018-01-12T21:03:41.896Z,14.57
2018-01-12T21:06:09.702Z,14.60
2018-01-12T21:08:37.414Z,13.00
2018-01-12T21:11:05.197Z,14.23
2018-01-12T21:13:32.939Z,15.20
2018-01-12T21:16:00.759Z,13.03
2018-01-12T21:18:28.552Z,14.73
2018-01-12T21:20:56.367Z,13.50
2018-01-12T21:23:24.130Z,14.33
2018-01-12T21:25:51.896Z,15.73
2018-01-12T21:28:19.640Z,13.00
2018-01-12T21:30:47.397Z,14.20
2018-01-12T21:33:15.123Z,13.40
2018-01-12T21:35:42.883Z,14.10
2018-01-12T21:38:10.591Z,13.07
2018-01-12T21:40:38.345Z,13.17
2018-01-12T21:43:05.971Z,12.70
2018-01-12T21:45:33.659Z,13.63
2018-01-12T21:48:08.307Z,14.80
2018-01-12T21:50:36.176Z,13.53
2018-01-12T21:53:03.918Z,13.40
2018-01-12T21:55:31.691Z,14.87
2018-01-12T21:57:59.344Z,14.30
2018-01-12T22:00:27.150Z,13.60
2018-01-12T22:02:54.778Z,12.67
2018-01-12T22:05:22.578Z,13.90
2018-01-12T22:07:50.246Z,13.10
2018-01-12T22:10:17.923Z,13.27
2018-01-12T22:12:45.604Z,12.63
2018-01-12T22:15:13.298Z,13.20
2018-01-12T22:17:40.917Z,12.93
2018-01-12T22:20:08.590Z,13.50
2018-01-12T22:22:36.238Z,14.20
2018-01-12T22:25:04.021Z,12.90
2018-01-12T22:27:31.699Z,13.70
2018-01-12T22:29:59.368Z,13.57
2018-01-12T22:32:27.060Z,13.07
2018-01-12T22:34:54.711Z,13.10
2018-01-12T22:37:22.383Z,12.60
2018-01-12T22:39:50.028Z,13.60
2018-01-12T22:42:17.728Z,14.97
2018-01-12T22:44:45.402Z,13.67
2018-01-12T22:47:13.076Z,12.63
2018-01-12T22:49:40.760Z,14.80
2018-01-12T22:52:08.447Z,13.70
2018-01-12T22:54:36.154Z,11.87
2018-01-12T22:57:03.829Z,14.20
2018-01-12T22:59:31.533Z,14.40
2018-01-12T23:01:59.263Z,13.93
2018-01-12T23:04:26.967Z,15.23
2018-01-12T23:06:54.737Z,14.33
2018-01-12T23:09:22.365Z,12.37
2018-01-12T23:11:50.102Z,14.87
2018-01-12T23:14:17.799Z,14.37
2018-01-12T23:16:45.482Z,14.13
2018-01-12T23:19:13.270Z,14.00
2018-01-12T23:21:41.003Z,13.53
2018-01-12T23:24:08.689Z,13.50
2018-01-12T23:26:36.475Z,15.13
2018-01-12T23:29:04.121Z,14.40
2018-01-12T23:31:31.873Z,14.13
2018-01-12T23:33:59.566Z,14.87
2018-01-12T23:36:27.309Z,14.00
2018-01-12T23:38:55.016Z,15.13
2018-01-12T23:41:22.759Z,15.30
2018-01-12T23:43:50.504Z,15.60
2018-01-12T23:46:18.253Z,14.17
2018-01-12T23:48:45.993Z,15.03
2018-01-12T23:51:13.785Z,15.57
2018-01-12T23:53:41.490Z,15.50
2018-01-12T23:56:09.174Z,16.33
2018-01-12T23:58:36.885Z,14.90
